Time;durP1;ratioP1;P1;durP2;ratioP2;P2;SDS_P1;SDS_P2;PMS_P1;PMS_P2;Temp;Humidity;BMP_temperature;BMP_pressure;BME280_temperature;BME280_humidity;BME280_pressure;Samples;Min_cycle;Max_cycle;Signal;HPM_P1;HPM_P2
2022/10/08 00:00:54;;;;;;;11.57;2.70;;;;;;;11.83;89.11;101122.16;4972680;28;20197;-48
2022/10/08 00:03:21;;;;;;;8.77;2.40;;;;;;;11.83;89.21;101123.94;4972664;28;20253;-49
2022/10/08 00:06:01;;;;;;;14.45;2.97;;;;;;;11.85;89.29;101111.34;4972408;28;20508;-48
2022/10/08 00:08:28;;;;;;;9.82;2.60;;;;;;;11.76;89.45;101109.88;4971254;28;20217;-49
2022/10/08 00:10:56;;;;;;;9.65;2.22;;;;;;;11.76;89.63;101115.25;4972411;28;20732;-53
2022/10/08 00:13:23;;;;;;;12.95;3.10;;;;;;;11.70;89.80;101108.34;4972305;28;20299;-52
2022/10/08 00:15:49;;;;;;;13.75;2.28;;;;;;;11.75;89.83;101106.34;4972433;28;20581;-48
2022/10/08 00:18:14;;;;;;;10.43;2.60;;;;;;;11.77;89.99;101106.28;4972231;28;20170;-48
2022/10/08 00:20:40;;;;;;;13.57;2.67;;;;;;;11.70;90.17;101104.78;4971036;28;20562;-49
2022/10/08 00:23:06;;;;;;;10.18;3.10;;;;;;;11.72;90.04;101109.16;4972314;28;20221;-51
2022/10/08 00:25:36;;;;;;;16.90;3.53;;;;;;;11.72;90.32;101100.25;4971856;28;20209;-47
2022/10/08 00:28:04;;;;;;;9.93;2.65;;;;;;;11.70;90.23;101102.09;4972221;28;20185;-52
2022/10/08 00:30:29;;;;;;;10.75;3.10;;;;;;;11.70;90.49;101094.06;4970197;28;20206;-51
2022/10/08 00:32:55;;;;;;;13.15;3.17;;;;;;;11.68;90.55;101096.78;4972314;28;20202;-48
2022/10/08 00:35:20;;;;;;;14.38;3.13;;;;;;;11.67;90.56;101091.47;4972139;28;20216;-48
2022/10/08 00:37:46;;;;;;;14.13;3.13;;;;;;;11.74;90.37;101084.91;4971714;28;20167;-48
2022/10/08 00:40:11;;;;;;;9.90;2.65;;;;;;;11.74;90.81;101085.81;4972066;28;20173;-47
2022/10/08 00:42:37;;;;;;;15.38;2.92;;;;;;;11.75;90.59;101092.06;4971760;28;20577;-48
2022/10/08 00:45:05;;;;;;;11.00;2.50;;;;;;;11.82;90.50;101090.00;4971882;28;20170;-45
2022/10/08 00:47:47;;;;;;;13.13;2.97;;;;;;;11.76;90.67;101069.63;4970479;28;20633;-46
2022/10/08 00:50:39;;;;;;;14.98;2.70;;;;;;;11.88;90.34;101071.88;4970081;28;20281;-51
2022/10/08 00:53:07;;;;;;;9.77;2.60;;;;;;;11.82;90.61;101074.75;4947228;28;20202;-45
2022/10/08 00:55:34;;;;;;;9.30;2.40;;;;;;;11.92;90.70;101061.91;4959361;28;20187;-46
2022/10/08 00:58:10;;;;;;;9.27;2.53;;;;;;;11.98;90.47;101066.13;4959531;28;20591;-49
2022/10/08 01:00:35;;;;;;;9.43;2.55;;;;;;;12.00;90.94;101065.13;4970188;28;20185;-45
2022/10/08 01:03:02;;;;;;;9.70;2.45;;;;;;;12.00;91.49;101075.88;4971559;28;20182;-48
2022/10/08 01:05:39;;;;;;;11.07;2.90;;;;;;;11.89;91.87;101072.75;4971575;28;20182;-46
2022/10/08 01:08:25;;;;;;;7.97;2.47;;;;;;;11.92;92.27;101054.72;4967315;28;20177;-48
2022/10/08 01:11:29;;;;;;;9.80;2.33;;;;;;;11.97;92.67;101067.94;4962591;28;20209;-47
2022/10/08 01:14:27;;;;;;;13.18;2.55;;;;;;;11.91;92.64;101069.06;4913226;28;20211;-46
2022/10/08 01:17:23;;;;;;;12.73;2.80;;;;;;;11.94;92.97;101060.88;4936633;28;20213;-46
2022/10/08 01:20:17;;;;;;;10.13;2.38;;;;;;;11.92;93.27;101057.38;4961911;28;20186;-46
2022/10/08 01:22:54;;;;;;;12.00;3.00;;;;;;;11.98;93.12;101058.94;4965134;28;20392;-45
2022/10/08 01:25:32;;;;;;;10.90;2.63;;;;;;;11.98;93.34;101055.38;4965595;28;20609;-47
2022/10/08 01:28:19;;;;;;;11.95;2.50;;;;;;;12.01;93.34;101052.59;4958214;28;20197;-47
2022/10/08 01:31:02;;;;;;;10.13;2.35;;;;;;;12.00;93.67;101053.50;4964327;28;20687;-44
2022/10/08 01:33:42;;;;;;;7.75;2.60;;;;;;;12.03;93.44;101056.09;4958771;28;20646;-44
2022/10/08 01:36:10;;;;;;;13.02;2.85;;;;;;;12.03;93.09;101053.41;4965372;28;20197;-46
2022/10/08 01:38:40;;;;;;;7.57;2.58;;;;;;;12.06;93.48;101048.75;4965683;28;20717;-44
2022/10/08 01:41:08;;;;;;;11.07;3.35;;;;;;;12.08;93.26;101046.03;4966162;28;20217;-48
2022/10/08 01:43:41;;;;;;;12.65;2.70;;;;;;;12.11;93.38;101059.31;4966470;28;20724;-45
2022/10/08 01:46:12;;;;;;;12.60;2.67;;;;;;;12.07;93.70;101061.28;4967945;28;20193;-47
2022/10/08 01:48:41;;;;;;;11.63;2.65;;;;;;;12.12;93.78;101063.78;4960965;28;20198;-46
2022/10/08 01:51:19;;;;;;;11.10;2.35;;;;;;;12.27;93.57;101063.13;4965819;28;20586;-45
2022/10/08 01:53:49;;;;;;;12.43;2.10;;;;;;;12.11;93.87;101065.59;4968162;28;20190;-46
2022/10/08 01:56:19;;;;;;;8.27;2.35;;;;;;;12.11;94.04;101070.06;4959349;28;20182;-45
2022/10/08 01:59:07;;;;;;;12.32;2.85;;;;;;;12.06;94.77;101066.69;4965696;28;20733;-45
2022/10/08 02:01:39;;;;;;;9.05;2.55;;;;;;;12.00;95.34;101069.63;4953067;28;20582;-46
2022/10/08 02:06:55;;;;;;;11.70;2.67;;;;;;;12.02;96.62;101076.69;4968368;28;20190;-47
2022/10/08 02:09:26;;;;;;;8.98;2.50;;;;;;;11.90;96.95;101070.00;4965216;28;20194;-47
2022/10/08 02:11:52;;;;;;;11.75;2.65;;;;;;;11.89;97.41;101072.75;4968578;28;20799;-46
2022/10/08 02:14:19;;;;;;;10.82;2.72;;;;;;;11.84;98.08;101064.84;4963461;28;20175;-48
2022/10/08 02:16:51;;;;;;;10.85;2.60;;;;;;;11.88;98.36;101068.31;4958825;28;20233;-46
2022/10/08 02:19:43;;;;;;;11.73;2.60;;;;;;;11.88;98.14;101079.94;4971463;28;20189;-49
2022/10/08 02:22:12;;;;;;;11.43;2.85;;;;;;;11.85;98.73;101073.75;4968682;28;20197;-47
2022/10/08 02:24:53;;;;;;;10.45;2.63;;;;;;;11.84;98.56;101074.72;4967159;28;20199;-49
2022/10/08 02:27:28;;;;;;;10.15;2.45;;;;;;;11.86;98.55;101079.06;4963206;28;20785;-49
2022/10/08 02:30:08;;;;;;;11.30;2.70;;;;;;;11.89;98.79;101068.22;4962300;28;20193;-47
2022/10/08 02:32:50;;;;;;;7.80;2.42;;;;;;;11.90;98.66;101080.75;4965655;28;20204;-47
2022/10/08 02:35:24;;;;;;;12.38;2.53;;;;;;;11.87;99.37;101075.47;4970181;28;20680;-51
2022/10/08 02:37:59;;;;;;;11.13;2.55;;;;;;;11.76;100.00;101080.38;4973374;28;20185;-44
2022/10/08 02:40:27;;;;;;;9.00;2.67;;;;;;;11.65;100.00;101083.47;4974142;28;20178;-46
2022/10/08 02:42:58;;;;;;;15.05;2.78;;;;;;;11.38;100.00;101077.34;4969544;28;20198;-47
2022/10/08 02:45:29;;;;;;;11.90;3.40;;;;;;;11.25;100.00;101068.88;4969188;28;20672;-47
2022/10/08 02:48:04;;;;;;;13.10;3.65;;;;;;;11.06;100.00;101062.44;4969737;28;20570;-46
2022/10/08 02:50:32;;;;;;;11.32;3.63;;;;;;;11.06;100.00;101046.34;4971307;28;20777;-47
2022/10/08 02:52:58;;;;;;;10.35;3.00;;;;;;;11.17;100.00;101054.00;4975727;28;20419;-47
2022/10/08 02:55:55;;;;;;;10.10;3.53;;;;;;;11.15;100.00;101051.41;4967741;28;20177;-45
2022/10/08 02:58:21;;;;;;;11.07;3.10;;;;;;;11.09;100.00;101041.78;4973949;28;20190;-45
2022/10/08 03:00:55;;;;;;;15.30;3.95;;;;;;;11.06;100.00;101046.34;4973422;28;20249;-47
2022/10/08 03:03:32;;;;;;;11.98;3.05;;;;;;;10.96;100.00;101055.69;4971864;28;20189;-45
2022/10/08 03:06:01;;;;;;;11.15;3.13;;;;;;;10.99;100.00;101052.88;4971538;28;20170;-43
2022/10/08 03:08:29;;;;;;;10.32;2.78;;;;;;;10.98;100.00;101045.78;4971706;28;20280;-45
2022/10/08 03:10:55;;;;;;;12.50;3.35;;;;;;;10.93;100.00;101046.81;4957393;28;20206;-46
2022/10/08 03:13:22;;;;;;;11.65;3.63;;;;;;;10.88;100.00;101045.22;4971803;28;20186;-44
2022/10/08 03:15:52;;;;;;;13.65;3.60;;;;;;;10.90;100.00;101067.50;4957771;28;20189;-43
2022/10/08 03:18:21;;;;;;;15.25;3.42;;;;;;;10.91;100.00;101069.22;4965370;28;20181;-48
2022/10/08 03:20:50;;;;;;;16.23;3.45;;;;;;;10.86;100.00;101074.75;4968334;28;20175;-46
2022/10/08 03:23:17;;;;;;;13.95;3.72;;;;;;;10.85;100.00;101067.66;4965613;28;20186;-47
2022/10/08 03:25:43;;;;;;;16.92;4.28;;;;;;;10.88;100.00;101058.63;4971772;28;20194;-46
2022/10/08 03:28:08;;;;;;;15.50;3.70;;;;;;;10.85;100.00;101070.34;4973199;28;20546;-46
2022/10/08 03:30:34;;;;;;;15.85;4.20;;;;;;;10.81;100.00;101059.78;4972731;28;20198;-44
2022/10/08 03:32:59;;;;;;;14.75;3.90;;;;;;;10.78;100.00;101039.34;4963563;28;20210;-47
2022/10/08 03:35:25;;;;;;;16.23;4.15;;;;;;;10.77;100.00;101052.78;4967798;28;20174;-47
2022/10/08 03:37:52;;;;;;;15.50;4.28;;;;;;;10.82;100.00;101043.66;4972763;28;20281;-48
2022/10/08 03:40:18;;;;;;;10.30;3.80;;;;;;;10.83;100.00;101041.84;4956142;28;20679;-46
2022/10/08 03:42:43;;;;;;;14.10;3.92;;;;;;;10.77;100.00;101037.56;4971272;28;20193;-46
2022/10/08 03:45:09;;;;;;;18.95;4.50;;;;;;;10.72;100.00;101040.41;4967744;28;20553;-47
2022/10/08 03:47:34;;;;;;;13.48;4.50;;;;;;;10.72;100.00;101045.78;4972510;28;20193;-46
2022/10/08 03:49:59;;;;;;;18.90;5.43;;;;;;;10.71;100.00;101046.72;4972342;28;20197;-45
2022/10/08 03:52:25;;;;;;;17.15;4.90;;;;;;;10.71;100.00;101041.38;4972623;28;20205;-48
2022/10/08 03:54:50;;;;;;;18.05;5.25;;;;;;;10.70;100.00;101049.44;4968666;28;20178;-46
2022/10/08 03:57:16;;;;;;;10.77;4.28;;;;;;;10.71;100.00;101041.38;4966793;28;20191;-45
2022/10/08 03:59:41;;;;;;;16.73;5.20;;;;;;;10.71;100.00;101045.81;4971924;28;20190;-47
2022/10/08 04:02:07;;;;;;;12.60;5.03;;;;;;;10.69;100.00;101053.94;4970760;28;20297;-46
2022/10/08 04:04:32;;;;;;;12.52;5.32;;;;;;;10.71;100.00;101057.44;4970838;28;20363;-52
2022/10/08 04:06:58;;;;;;;14.25;4.78;;;;;;;10.75;100.00;101063.53;4971633;28;20166;-47
2022/10/08 04:09:23;;;;;;;21.67;6.10;;;;;;;10.75;100.00;101063.53;4972240;28;20177;-48
2022/10/08 04:11:49;;;;;;;14.35;5.60;;;;;;;10.73;100.00;101065.41;4972303;28;20586;-50
2022/10/08 04:14:14;;;;;;;11.45;4.70;;;;;;;10.76;100.00;101077.81;4954895;28;20287;-47
2022/10/08 04:16:40;;;;;;;14.10;4.72;;;;;;;10.76;100.00;101072.47;4972217;28;20173;-48
2022/10/08 04:19:05;;;;;;;16.40;5.28;;;;;;;10.73;100.00;101057.38;4972440;28;20190;-51
2022/10/08 04:21:30;;;;;;;16.70;4.70;;;;;;;10.73;100.00;101073.44;4972010;28;20190;-46
2022/10/08 04:23:56;;;;;;;11.23;4.63;;;;;;;10.74;100.00;101060.94;4970700;28;20177;-48
2022/10/08 04:26:22;;;;;;;13.50;4.35;;;;;;;10.77;100.00;101069.72;4971662;28;20269;-48
2022/10/08 04:28:47;;;;;;;14.88;4.28;;;;;;;10.77;100.00;101064.38;4970810;28;20198;-53
2022/10/08 04:31:16;;;;;;;12.00;4.80;;;;;;;10.71;100.00;101075.31;4971780;28;20210;-48
2022/10/08 04:33:42;;;;;;;20.25;4.43;;;;;;;10.71;100.00;101077.97;4972009;28;20174;-46
2022/10/08 04:36:09;;;;;;;18.48;4.95;;;;;;;10.69;100.00;101069.13;4970691;28;20246;-47
2022/10/08 04:38:35;;;;;;;15.32;4.15;;;;;;;10.68;100.00;101073.59;4971803;28;20221;-48
2022/10/08 04:41:05;;;;;;;11.80;4.05;;;;;;;10.65;100.00;101076.41;4971507;28;20288;-47
2022/10/08 04:43:31;;;;;;;14.65;4.90;;;;;;;10.59;100.00;101073.94;4970150;28;20285;-46
2022/10/08 04:45:57;;;;;;;11.85;4.55;;;;;;;10.60;100.00;101074.81;4971592;28;20181;-48
2022/10/08 04:48:22;;;;;;;12.13;4.45;;;;;;;10.58;100.00;101077.53;4970402;28;20264;-49
2022/10/08 04:50:53;;;;;;;15.82;4.80;;;;;;;10.50;100.00;101079.63;4971194;28;20283;-48
2022/10/08 04:53:19;;;;;;;12.65;4.82;;;;;;;10.51;100.00;101076.00;4971552;28;20580;-46
2022/10/08 04:55:45;;;;;;;15.23;4.90;;;;;;;10.50;100.00;101068.91;4969800;28;20256;-46
2022/10/08 04:58:11;;;;;;;18.55;5.72;;;;;;;10.49;100.00;101072.47;4971426;28;20252;-50
2022/10/08 05:00:36;;;;;;;17.52;5.90;;;;;;;10.48;100.00;101070.75;4971018;28;20182;-46
2022/10/08 05:03:02;;;;;;;15.05;5.85;;;;;;;10.50;100.00;101075.13;4971207;28;20207;-48
2022/10/08 05:05:27;;;;;;;17.23;6.78;;;;;;;10.54;100.00;101077.69;4971515;28;20174;-47
2022/10/08 05:07:55;;;;;;;18.17;6.13;;;;;;;10.58;100.00;101077.53;4971264;28;20507;-47
2022/10/08 05:10:23;;;;;;;12.32;6.78;;;;;;;10.62;100.00;101087.22;4953853;28;20608;-47
2022/10/08 05:12:49;;;;;;;19.38;6.30;;;;;;;10.70;100.00;101087.84;4971300;28;20280;-48
2022/10/08 05:15:14;;;;;;;15.52;7.28;;;;;;;10.63;100.00;101090.78;4970063;28;20245;-46
2022/10/08 05:17:40;;;;;;;16.20;6.93;;;;;;;10.64;100.00;101098.75;4971414;28;20170;-45
2022/10/08 05:20:06;;;;;;;15.32;7.38;;;;;;;10.63;100.00;101106.88;4971143;28;20617;-52
2022/10/08 05:22:31;;;;;;;14.23;7.15;;;;;;;10.64;100.00;101114.84;4971265;28;20681;-45
2022/10/08 05:24:57;;;;;;;19.58;7.70;;;;;;;10.65;100.00;101127.31;4969829;28;20177;-46
2022/10/08 05:27:22;;;;;;;21.60;8.77;;;;;;;10.67;100.00;101120.09;4970860;28;20166;-46
2022/10/08 05:29:48;;;;;;;13.00;7.68;;;;;;;10.67;100.00;101122.78;4971170;28;20256;-50
2022/10/08 05:32:13;;;;;;;17.30;7.72;;;;;;;10.70;100.00;101140.56;4970850;28;20202;-45
2022/10/08 05:34:39;;;;;;;18.38;8.23;;;;;;;10.71;100.00;101129.78;4970659;28;20186;-47
2022/10/08 05:37:04;;;;;;;16.38;8.50;;;;;;;10.71;100.00;101139.63;4970963;28;20160;-49
2022/10/08 05:39:30;;;;;;;17.38;7.90;;;;;;;10.72;100.00;101138.72;4972696;28;20197;-45
2022/10/08 05:41:55;;;;;;;16.75;7.60;;;;;;;10.80;100.00;101123.25;4974813;28;20193;-46
2022/10/08 05:44:21;;;;;;;16.90;7.32;;;;;;;10.79;100.00;101134.00;4974730;28;20232;-47
2022/10/08 05:46:46;;;;;;;15.50;7.88;;;;;;;10.78;100.00;101129.56;4974706;28;20261;-47
2022/10/08 05:49:22;;;;;;;16.75;8.18;;;;;;;10.74;100.00;101136.84;4974761;28;20154;-47
2022/10/08 05:51:49;;;;;;;17.92;8.68;;;;;;;10.70;100.00;101135.19;4974541;28;20301;-46
2022/10/08 05:54:16;;;;;;;17.40;7.90;;;;;;;10.75;100.00;101137.72;4974751;28;20170;-45
2022/10/08 05:56:42;;;;;;;15.07;8.23;;;;;;;10.76;100.00;101139.47;4974510;28;20640;-46
2022/10/08 05:59:15;;;;;;;18.55;8.10;;;;;;;10.74;100.00;101152.06;4974540;28;20190;-45
2022/10/08 06:01:41;;;;;;;15.75;8.13;;;;;;;10.75;100.00;101149.31;4971680;28;20186;-52
2022/10/08 06:04:06;;;;;;;18.65;9.43;;;;;;;10.72;100.00;101152.97;4970461;28;20213;-49
2022/10/08 06:06:34;;;;;;;19.73;8.13;;;;;;;10.71;100.00;101156.59;4971647;28;20186;-51
2022/10/08 06:09:00;;;;;;;15.38;8.50;;;;;;;10.80;100.00;101160.78;4972246;28;20583;-50
2022/10/08 06:11:32;;;;;;;16.58;8.95;;;;;;;10.81;100.00;101159.81;4964325;28;20695;-51
2022/10/08 06:13:59;;;;;;;15.30;9.02;;;;;;;10.81;100.00;101164.31;4962854;28;20174;-49
2022/10/08 06:16:26;;;;;;;15.52;9.20;;;;;;;10.82;100.00;101161.59;4962465;28;20276;-51
2022/10/08 06:18:51;;;;;;;16.35;9.05;;;;;;;10.83;100.00;101167.81;4965744;28;20856;-50
2022/10/08 06:21:20;;;;;;;17.48;9.32;;;;;;;10.81;100.00;101180.41;4955010;28;20288;-52
2022/10/08 06:23:51;;;;;;;16.23;9.45;;;;;;;10.77;100.00;101178.75;4966141;28;20232;-52
2022/10/08 06:26:17;;;;;;;15.77;9.23;;;;;;;10.75;100.00;101176.09;4963817;28;20561;-50
2022/10/08 06:28:44;;;;;;;16.75;9.07;;;;;;;10.80;100.00;101184.00;4962179;28;20265;-50
2022/10/08 06:31:10;;;;;;;13.00;8.45;;;;;;;10.71;100.00;101188.75;4971150;28;20284;-51
2022/10/08 06:33:36;;;;;;;16.63;8.52;;;;;;;10.74;100.00;101194.94;4969641;28;20186;-51
2022/10/08 06:36:06;;;;;;;16.27;8.95;;;;;;;10.78;100.00;101204.59;4971333;28;20189;-50
2022/10/08 06:38:32;;;;;;;19.23;9.30;;;;;;;10.72;100.00;101198.53;4966153;28;20654;-51
2022/10/08 06:40:58;;;;;;;13.23;8.60;;;;;;;10.80;100.00;101202.75;4962624;28;20216;-50
2022/10/08 06:43:24;;;;;;;15.85;9.85;;;;;;;10.80;100.00;101208.13;4962620;28;20656;-51
2022/10/08 06:45:50;;;;;;;15.60;9.23;;;;;;;10.81;100.00;101209.88;4969549;28;20225;-52
2022/10/08 06:48:15;;;;;;;17.92;8.48;;;;;;;10.85;100.00;101214.22;4970048;28;20567;-51
2022/10/08 06:50:41;;;;;;;19.95;8.75;;;;;;;10.86;100.00;101219.50;4968959;28;20614;-51
2022/10/08 06:53:09;;;;;;;18.45;8.65;;;;;;;10.89;100.00;101221.25;4965848;28;20270;-52
2022/10/08 06:55:35;;;;;;;17.77;9.45;;;;;;;10.96;100.00;101222.78;4963643;28;20748;-50
2022/10/08 06:58:01;;;;;;;13.60;8.70;;;;;;;11.07;100.00;101220.59;4968845;28;20261;-51
2022/10/08 07:00:27;;;;;;;19.65;8.60;;;;;;;11.20;100.00;101221.06;4968316;28;20228;-49
2022/10/08 07:02:53;;;;;;;16.90;9.27;;;;;;;11.53;100.00;101231.53;4966168;28;20313;-50
2022/10/08 07:05:18;;;;;;;16.23;9.02;;;;;;;11.65;100.00;101222.16;4966126;28;20696;-51
2022/10/08 07:07:44;;;;;;;19.70;8.85;;;;;;;11.61;100.00;101221.41;4967300;28;20174;-50
2022/10/08 07:10:11;;;;;;;17.75;8.30;;;;;;;11.69;100.00;101213.94;4967114;28;20224;-52
2022/10/08 07:12:36;;;;;;;17.17;8.25;;;;;;;11.93;100.00;101220.22;4964804;28;20210;-51
2022/10/08 07:15:02;;;;;;;18.23;7.63;;;;;;;11.91;100.00;101222.09;4968171;28;20178;-51
2022/10/08 07:17:28;;;;;;;13.70;6.97;;;;;;;11.95;100.00;101218.38;4970083;28;20352;-49
2022/10/08 07:19:55;;;;;;;21.38;8.00;;;;;;;11.86;100.00;101221.38;4959076;28;20179;-51
2022/10/08 07:22:21;;;;;;;11.23;5.95;;;;;;;12.02;100.00;101220.81;4968954;28;20209;-49
2022/10/08 07:24:47;;;;;;;14.50;6.60;;;;;;;11.83;100.00;101217.91;4964412;28;20249;-51
2022/10/08 07:27:13;;;;;;;14.90;6.30;;;;;;;11.86;100.00;101231.25;4961861;28;20202;-46
2022/10/08 07:29:39;;;;;;;19.40;6.40;;;;;;;11.66;100.00;101227.47;4955796;28;20201;-48
2022/10/08 07:32:05;;;;;;;10.73;5.53;;;;;;;11.55;100.00;101230.53;4972761;28;20206;-51
2022/10/08 07:34:30;;;;;;;12.88;5.45;;;;;;;11.53;100.00;101229.72;4973197;28;20177;-49
2022/10/08 07:36:56;;;;;;;14.30;4.88;;;;;;;11.45;100.00;101228.25;4973226;28;20166;-48
2022/10/08 07:39:21;;;;;;;11.50;4.70;;;;;;;11.37;100.00;101228.53;4973247;28;20177;-47
2022/10/08 07:41:48;;;;;;;12.48;4.55;;;;;;;11.63;100.00;101229.38;4973421;28;20269;-46
2022/10/08 07:44:15;;;;;;;10.70;4.20;;;;;;;12.11;100.00;101228.53;4972866;28;20186;-48
2022/10/08 07:46:49;;;;;;;13.70;3.58;;;;;;;12.40;100.00;101232.78;4973316;28;20225;-46
2022/10/08 07:49:18;;;;;;;6.82;3.17;;;;;;;12.79;100.00;101232.13;4973071;28;20249;-46
2022/10/08 07:51:45;;;;;;;10.13;2.30;;;;;;;12.83;100.00;101235.56;4972470;28;20610;-47
2022/10/08 07:54:16;;;;;;;3.67;1.75;;;;;;;13.07;100.00;101245.28;4972842;28;20182;-44
2022/10/08 07:56:41;;;;;;;7.20;1.92;;;;;;;12.64;100.00;101252.44;4972444;28;20633;-51
2022/10/08 07:59:07;;;;;;;6.28;1.55;;;;;;;12.13;100.00;101242.78;4972910;28;20179;-45
2022/10/08 08:01:33;;;;;;;8.05;1.80;;;;;;;11.92;100.00;101245.34;4972707;28;20261;-46
2022/10/08 08:04:01;;;;;;;7.97;1.70;;;;;;;11.70;100.00;101239.00;4972729;28;20170;-46
2022/10/08 08:06:28;;;;;;;6.82;1.80;;;;;;;11.51;100.00;101253.06;4972937;28;20173;-47
2022/10/08 08:08:54;;;;;;;7.63;1.65;;;;;;;11.40;100.00;101260.59;4972797;28;20229;-50
2022/10/08 08:11:22;;;;;;;9.38;1.60;;;;;;;11.37;100.00;101260.72;4971485;28;20214;-46
2022/10/08 08:13:48;;;;;;;7.32;1.60;;;;;;;11.25;100.00;101266.50;4971256;28;20540;-46
2022/10/08 08:16:18;;;;;;;7.88;1.65;;;;;;;11.23;100.00;101292.50;4972296;28;20167;-45
2022/10/08 08:18:46;;;;;;;7.10;1.63;;;;;;;11.32;100.00;101292.19;4972150;28;20165;-48
2022/10/08 08:21:19;;;;;;;5.78;1.63;;;;;;;11.38;100.00;101297.34;4972126;28;20244;-44
2022/10/08 08:23:47;;;;;;;5.28;1.40;;;;;;;11.58;100.00;101295.78;4972264;28;20245;-48
2022/10/08 08:26:16;;;;;;;6.57;1.60;;;;;;;11.82;100.00;101292.22;4972230;28;20664;-48
2022/10/08 08:28:42;;;;;;;4.45;1.48;;;;;;;11.62;100.00;101292.94;4971916;28;20641;-46
2022/10/08 08:31:14;;;;;;;5.15;1.67;;;;;;;11.50;100.00;101304.97;4971202;28;20225;-46
2022/10/08 08:33:41;;;;;;;7.43;1.75;;;;;;;11.36;100.00;101296.50;4971890;28;20177;-48
2022/10/08 08:36:07;;;;;;;5.68;1.40;;;;;;;11.21;100.00;101303.25;4972737;28;20197;-46
2022/10/08 08:38:37;;;;;;;4.90;1.45;;;;;;;11.17;100.00;101301.59;4972407;28;20716;-46
2022/10/08 08:41:21;;;;;;;7.68;1.65;;;;;;;11.05;100.00;101310.94;4972242;28;20205;-48
2022/10/08 08:43:47;;;;;;;5.13;1.20;;;;;;;10.98;100.00;101312.09;4972291;28;20177;-47
2022/10/08 08:46:18;;;;;;;10.88;1.50;;;;;;;10.83;100.00;101320.63;4971954;28;20170;-47
2022/10/08 08:48:45;;;;;;;11.32;2.58;;;;;;;10.76;100.00;101324.38;4972216;28;20197;-47
2022/10/08 08:51:11;;;;;;;9.65;1.63;;;;;;;10.71;100.00;101325.44;4971578;28;20606;-47
2022/10/08 08:53:37;;;;;;;9.18;1.58;;;;;;;10.61;100.00;101333.81;4972332;28;20173;-47
2022/10/08 08:56:07;;;;;;;4.55;1.55;;;;;;;10.47;100.00;101345.81;4970081;28;20546;-48
2022/10/08 08:58:40;;;;;;;6.40;1.65;;;;;;;10.43;100.00;101351.28;4962535;28;20190;-52
2022/10/08 09:01:08;;;;;;;7.45;1.55;;;;;;;10.26;100.00;101352.63;4960374;28;20288;-50
2022/10/08 09:03:43;;;;;;;7.43;1.23;;;;;;;10.14;100.00;101357.44;4951962;28;20208;-49
2022/10/08 09:06:13;;;;;;;5.38;1.30;;;;;;;10.05;100.00;101345.19;4966960;28;20645;-49
2022/10/08 09:08:54;;;;;;;4.82;1.27;;;;;;;10.10;100.00;101348.59;4957046;28;20208;-51
2022/10/08 09:11:23;;;;;;;4.53;1.20;;;;;;;10.15;100.00;101362.75;4965389;28;20217;-49
2022/10/08 09:13:57;;;;;;;6.03;1.25;;;;;;;10.09;100.00;101360.25;4960173;28;20174;-46
2022/10/08 09:16:25;;;;;;;8.43;1.25;;;;;;;10.03;100.00;101366.63;4964651;28;20194;-47
2022/10/08 09:18:50;;;;;;;3.88;1.02;;;;;;;10.16;100.00;101344.88;4965997;28;20178;-50
2022/10/08 09:21:18;;;;;;;5.85;1.20;;;;;;;10.11;100.00;101351.25;4955968;28;20302;-49
2022/10/08 09:23:44;;;;;;;6.90;1.00;;;;;;;10.22;100.00;101355.44;4963572;28;20861;-49
2022/10/08 09:26:21;;;;;;;7.28;1.35;;;;;;;10.15;100.00;101352.06;4956410;28;20185;-49
2022/10/08 09:28:49;;;;;;;3.47;1.48;;;;;;;10.17;100.00;101360.06;4962056;28;20248;-49
2022/10/08 09:31:26;;;;;;;3.40;1.40;;;;;;;10.17;100.00;101352.88;4964582;28;20225;-48
2022/10/08 09:33:57;;;;;;;5.03;1.50;;;;;;;10.31;100.00;101366.78;4959253;28;20269;-51
2022/10/08 09:36:57;;;;;;;4.63;1.33;;;;;;;10.49;100.00;101373.44;4958980;28;20185;-47
2022/10/08 09:39:29;;;;;;;6.47;1.35;;;;;;;10.47;100.00;101369.91;4947530;28;20278;-48
2022/10/08 09:42:16;;;;;;;4.13;1.13;;;;;;;10.41;100.00;101370.09;4965855;28;20198;-49
2022/10/08 09:44:45;;;;;;;6.10;1.50;;;;;;;10.59;100.00;101371.34;4966346;28;20177;-48
2022/10/08 09:47:22;;;;;;;7.35;1.40;;;;;;;10.78;100.00;101384.19;4960363;28;20599;-48
2022/10/08 09:50:12;;;;;;;4.78;1.10;;;;;;;10.92;100.00;101371.25;4962015;28;20178;-52
2022/10/08 09:52:39;;;;;;;4.00;0.95;;;;;;;10.89;100.00;101374.03;4966537;28;20261;-52
2022/10/08 09:55:14;;;;;;;4.50;1.33;;;;;;;10.92;100.00;101381.97;4967865;28;20684;-51
2022/10/08 09:57:45;;;;;;;6.10;1.48;;;;;;;10.99;100.00;101380.84;4967422;28;20194;-46
2022/10/08 10:00:22;;;;;;;5.80;1.45;;;;;;;11.13;100.00;101377.75;4965771;28;20209;-48
2022/10/08 10:02:53;;;;;;;8.07;1.88;;;;;;;11.42;100.00;101373.25;4960813;28;20219;-47
2022/10/08 10:05:23;;;;;;;8.55;1.52;;;;;;;11.77;100.00;101372.06;4965707;28;20194;-47
2022/10/08 10:07:49;;;;;;;7.40;1.55;;;;;;;11.78;100.00;101375.59;4967966;28;20213;-47
2022/10/08 10:10:22;;;;;;;5.70;1.38;;;;;;;11.76;100.00;101372.97;4967391;28;20285;-45
2022/10/08 10:13:05;;;;;;;2.78;1.25;;;;;;;12.00;100.00;101375.75;4962254;28;20226;-48
2022/10/08 10:15:38;;;;;;;4.95;1.33;;;;;;;12.35;100.00;101370.00;4947124;28;20203;-46
2022/10/08 10:18:13;;;;;;;4.30;1.10;;;;;;;12.46;100.00;101366.94;4966919;28;20625;-45
2022/10/08 10:20:44;;;;;;;4.63;2.15;;;;;;;12.55;100.00;101366.56;4981493;28;20198;-44
2022/10/08 10:23:13;;;;;;;3.83;1.00;;;;;;;12.83;100.00;101357.44;4968542;28;20182;-52
2022/10/08 10:25:48;;;;;;;5.10;1.33;;;;;;;12.79;100.00;101361.19;4978455;28;20835;-51
2022/10/08 10:28:16;;;;;;;3.67;0.93;;;;;;;12.92;100.00;101362.47;4962364;28;20277;-50
2022/10/08 10:31:08;;;;;;;3.97;1.45;;;;;;;13.24;100.00;101360.28;4969100;28;20194;-51
2022/10/08 10:33:59;;;;;;;2.25;0.80;;;;;;;13.29;100.00;101354.75;4943780;28;20214;-52
2022/10/08 10:36:30;;;;;;;5.20;1.20;;;;;;;13.27;100.00;101351.19;4964306;28;20178;-50
2022/10/08 10:39:37;;;;;;;2.80;0.90;;;;;;;13.42;99.87;101350.59;4961859;28;20193;-52
2022/10/08 10:42:18;;;;;;;7.90;1.30;;;;;;;13.39;99.03;101358.81;4932032;28;20272;-51
2022/10/08 10:44:56;;;;;;;5.22;0.90;;;;;;;13.57;97.95;101346.41;4969855;28;20293;-51
2022/10/08 10:47:29;;;;;;;6.60;1.63;;;;;;;13.45;97.45;101353.19;4966588;28;20212;-50
2022/10/08 10:49:55;;;;;;;6.30;1.38;;;;;;;13.39;96.91;101351.59;4966765;28;20186;-48
2022/10/08 10:52:32;;;;;;;5.47;1.30;;;;;;;13.78;96.93;101348.16;4965543;28;20206;-52
2022/10/08 10:55:28;;;;;;;4.72;1.13;;;;;;;13.52;95.76;101343.91;4965911;28;20716;-51
2022/10/08 10:58:06;;;;;;;4.80;1.10;;;;;;;14.07;95.39;101350.53;4968196;28;20186;-50
2022/10/08 11:00:50;;;;;;;5.10;1.42;;;;;;;14.02;94.66;101340.84;4962256;28;20187;-50
2022/10/08 11:03:19;;;;;;;5.93;1.17;;;;;;;14.24;93.89;101347.97;4968110;28;20182;-51
2022/10/08 11:05:49;;;;;;;9.77;1.10;;;;;;;14.13;93.35;101342.19;4965844;28;20268;-50
2022/10/08 11:08:29;;;;;;;6.13;1.40;;;;;;;13.57;93.68;101362.53;4968053;28;20237;-49
2022/10/08 11:11:16;;;;;;;10.20;1.63;;;;;;;13.30;96.24;101370.84;4965349;28;20205;-52
2022/10/08 11:13:41;;;;;;;4.32;1.10;;;;;;;12.84;97.41;101371.78;4962059;28;20240;-50
2022/10/08 11:16:19;;;;;;;6.32;1.05;;;;;;;12.61;96.88;101368.13;4968627;28;20182;-50
2022/10/08 11:18:57;;;;;;;5.95;1.20;;;;;;;12.42;98.39;101386.78;4965733;28;20243;-50
2022/10/08 11:21:41;;;;;;;5.13;1.02;;;;;;;12.41;99.63;101373.41;4966662;28;20206;-49
2022/10/08 11:24:25;;;;;;;5.95;1.02;;;;;;;12.64;99.80;101381.47;4969556;28;20186;-49
2022/10/08 11:27:24;;;;;;;3.97;1.00;;;;;;;12.56;99.17;101389.81;4968403;28;20299;-50
2022/10/08 11:30:13;;;;;;;4.03;0.90;;;;;;;12.24;98.71;101401.75;4966967;28;20193;-51
2022/10/08 11:32:48;;;;;;;5.57;1.10;;;;;;;11.87;98.90;101391.41;4969387;28;20210;-47